createdAt,value
2023-03-24T00:01:20.245Z,101002.85
2023-03-24T00:03:52.636Z,101001.14
2023-03-24T00:06:22.926Z,100993.31
2023-03-24T00:08:51.530Z,100993.72
2023-03-24T00:11:21.456Z,100988.15
2023-03-24T00:13:50.869Z,100986.57
2023-03-24T00:16:22.179Z,100985.69
2023-03-24T00:18:54.409Z,100987.73
2023-03-24T00:21:24.887Z,100986.14
2023-03-24T00:23:54.750Z,100985.55
2023-03-24T00:26:25.647Z,100982.14
2023-03-24T00:28:55.083Z,100982.69
2023-03-24T00:31:24.913Z,100988.08
2023-03-24T00:33:54.056Z,100992.20
2023-03-24T00:36:23.366Z,100983.77
2023-03-24T00:38:52.245Z,100982.64
2023-03-24T00:41:21.198Z,100981.11
2023-03-24T00:43:50.214Z,100981.42
2023-03-24T00:46:28.397Z,100980.23
2023-03-24T00:49:02.972Z,100978.17
2023-03-24T00:51:39.499Z,100975.73
2023-03-24T00:54:09.468Z,100973.27
2023-03-24T00:56:40.957Z,100975.67
2023-03-24T00:59:10.690Z,100976.63
2023-03-24T01:01:41.396Z,100979.56
2023-03-24T01:04:10.678Z,100982.48
2023-03-24T01:06:40.155Z,100984.23
2023-03-24T01:09:08.427Z,100987.23
2023-03-24T01:11:38.944Z,100990.59
2023-03-24T01:14:08.811Z,100995.79
2023-03-24T01:16:37.900Z,100997.57
2023-03-24T01:19:06.928Z,100996.82
2023-03-24T01:21:36.997Z,100997.69
2023-03-24T01:24:06.015Z,101000.98
2023-03-24T01:26:34.745Z,101002.13
2023-03-24T01:29:03.279Z,101002.89
2023-03-24T01:31:31.934Z,101001.88
2023-03-24T01:34:00.550Z,101004.65
2023-03-24T01:36:28.822Z,101004.06
2023-03-24T01:38:58.644Z,101005.30
2023-03-24T01:41:28.505Z,101005.02
2023-03-24T01:43:57.375Z,101005.92
2023-03-24T01:46:29.773Z,101008.68
2023-03-24T01:49:06.604Z,101006.07
2023-03-24T01:51:41.493Z,101002.73
2023-03-24T01:54:25.952Z,101007.41
2023-03-24T01:57:00.246Z,101005.43
2023-03-24T01:59:30.890Z,101005.27
2023-03-24T02:02:22.290Z,101006.71
2023-03-24T02:05:01.320Z,101007.73
2023-03-24T02:07:37.037Z,101007.68
2023-03-24T02:10:10.233Z,101010.66
2023-03-24T02:12:38.616Z,101012.15
2023-03-24T02:15:09.033Z,101015.40
2023-03-24T02:17:57.450Z,101012.17
2023-03-24T02:20:41.637Z,101010.45
2023-03-24T02:23:17.596Z,101009.61
2023-03-24T02:25:48.843Z,101005.45
2023-03-24T02:28:29.309Z,101004.80
2023-03-24T02:31:08.797Z,101003.92
2023-03-24T02:33:40.708Z,101002.44
2023-03-24T02:36:22.003Z,101006.02
2023-03-24T02:39:09.519Z,101004.30
2023-03-24T02:41:41.168Z,101008.48
2023-03-24T02:44:28.584Z,101005.29
2023-03-24T02:47:06.387Z,101003.15
2023-03-24T02:49:44.418Z,101003.13
2023-03-24T02:52:12.762Z,101001.27
2023-03-24T02:54:42.474Z,101006.35
2023-03-24T02:57:17.615Z,101011.02
2023-03-24T03:00:20.186Z,101011.16
2023-03-24T03:03:09.949Z,101015.05
2023-03-24T03:05:49.497Z,101016.47
2023-03-24T03:08:21.325Z,101013.73
2023-03-24T03:10:50.661Z,101012.35
2023-03-24T03:13:28.217Z,101008.01
2023-03-24T03:15:59.261Z,101003.34
2023-03-24T03:18:39.586Z,101005.20
2023-03-24T03:21:11.213Z,101011.26
2023-03-24T03:23:46.349Z,101015.41
2023-03-24T03:26:17.705Z,101019.00
2023-03-24T03:28:50.605Z,101026.92
2023-03-24T03:31:30.035Z,101034.76
2023-03-24T03:34:18.779Z,101036.02
2023-03-24T03:36:47.063Z,101034.28
2023-03-24T03:39:20.972Z,101035.16
2023-03-24T03:41:49.147Z,101041.52
2023-03-24T03:44:17.443Z,101040.92
2023-03-24T03:46:46.436Z,101040.14
2023-03-24T03:49:19.214Z,101038.70
2023-03-24T03:51:47.601Z,101039.36
2023-03-24T03:54:16.921Z,101043.55
2023-03-24T03:56:48.697Z,101042.48
2023-03-24T03:59:34.861Z,101047.91
2023-03-24T04:02:26.249Z,101049.60
2023-03-24T04:05:21.057Z,101053.74
2023-03-24T04:08:08.575Z,101052.67
2023-03-24T04:10:57.029Z,101050.39
2023-03-24T04:13:32.766Z,101046.04
2023-03-24T04:16:40.303Z,101045.29
2023-03-24T04:19:26.156Z,101047.63
2023-03-24T04:22:17.439Z,101051.41
2023-03-24T04:24:45.818Z,101053.46
2023-03-24T04:27:17.475Z,101047.35
2023-03-24T04:29:55.481Z,101050.74
2023-03-24T04:32:28.095Z,101059.25
2023-03-24T04:35:02.066Z,101065.02
2023-03-24T04:37:56.550Z,101071.13
2023-03-24T04:40:33.219Z,101071.75
2023-03-24T04:43:04.415Z,101074.43
2023-03-24T04:45:33.763Z,101073.50
2023-03-24T04:48:28.027Z,101073.94
2023-03-24T04:51:12.872Z,101079.32
2023-03-24T04:53:56.881Z,101080.08
2023-03-24T04:56:28.638Z,101082.55
2023-03-24T04:59:07.525Z,101086.23
2023-03-24T05:01:37.889Z,101087.98
2023-03-24T05:04:27.342Z,101087.14
2023-03-24T05:06:56.143Z,101084.95
2023-03-24T05:09:26.559Z,101086.64
2023-03-24T05:12:17.503Z,101084.81
2023-03-24T05:15:19.711Z,101089.54
2023-03-24T05:17:49.767Z,101085.76
2023-03-24T05:20:18.319Z,101090.02
2023-03-24T05:22:50.593Z,101094.91
2023-03-24T05:25:19.086Z,101096.67
2023-03-24T05:27:47.874Z,101099.35
2023-03-24T05:30:27.326Z,101104.30
2023-03-24T05:33:01.949Z,101104.02
2023-03-24T05:35:30.841Z,101104.90
2023-03-24T05:37:59.518Z,101104.23
2023-03-24T05:40:28.014Z,101095.02
2023-03-24T05:43:12.460Z,101100.05
2023-03-24T05:45:45.454Z,101102.39
2023-03-24T05:48:20.497Z,101100.02
2023-03-24T05:51:14.863Z,101101.27
2023-03-24T05:53:43.605Z,101098.53
2023-03-24T05:56:17.462Z,101095.05
2023-03-24T05:59:17.988Z,101095.44
2023-03-24T06:02:08.290Z,101091.73
2023-03-24T06:04:52.036Z,101095.67
2023-03-24T06:07:26.774Z,101100.92
2023-03-24T06:09:58.330Z,101106.27
2023-03-24T06:12:27.077Z,101106.98
2023-03-24T06:15:01.431Z,101106.48
2023-03-24T06:17:30.953Z,101103.31
2023-03-24T06:20:05.335Z,101105.73
2023-03-24T06:22:36.573Z,101098.83
2023-03-24T06:25:09.267Z,101097.55
2023-03-24T06:27:38.462Z,101099.70
2023-03-24T06:30:08.677Z,101101.92
2023-03-24T06:32:38.537Z,101102.55
2023-03-24T06:35:07.512Z,101098.27
2023-03-24T06:37:47.766Z,101099.79
2023-03-24T06:40:17.806Z,101099.86
2023-03-24T06:42:55.994Z,101095.53
2023-03-24T06:45:24.798Z,101099.90
2023-03-24T06:47:57.363Z,101096.96
2023-03-24T06:50:27.386Z,101101.16
2023-03-24T06:52:56.290Z,101100.19
2023-03-24T06:55:25.176Z,101094.38
2023-03-24T06:57:54.395Z,101094.77
2023-03-24T07:00:38.871Z,101096.89
2023-03-24T07:03:36.928Z,101095.44
2023-03-24T07:06:33.131Z,101096.45
2023-03-24T07:09:09.887Z,101094.38
2023-03-24T07:11:38.788Z,101097.25
2023-03-24T07:14:07.783Z,101094.84
2023-03-24T07:16:37.289Z,101093.08
2023-03-24T07:19:28.811Z,101094.94
2023-03-24T07:22:13.461Z,101095.81
2023-03-24T07:25:04.914Z,101098.10
2023-03-24T07:27:42.875Z,101094.41
2023-03-24T07:30:11.913Z,101091.71
2023-03-24T07:32:46.033Z,101096.02
2023-03-24T07:35:14.373Z,101094.82
2023-03-24T07:37:42.972Z,101098.10
2023-03-24T07:40:12.948Z,101096.98
2023-03-24T07:42:44.947Z,101088.98
2023-03-24T07:45:36.009Z,101086.55
2023-03-24T07:48:04.980Z,101083.20
2023-03-24T07:50:36.417Z,101085.73
2023-03-24T07:53:12.667Z,101086.70
2023-03-24T07:55:41.661Z,101089.20
2023-03-24T07:58:15.070Z,101086.98
2023-03-24T08:00:53.685Z,101082.38
2023-03-24T08:03:28.679Z,101082.95
2023-03-24T08:06:15.932Z,101075.35
2023-03-24T08:08:52.010Z,101072.08
2023-03-24T08:11:21.675Z,101067.74
2023-03-24T08:13:49.780Z,101063.50
2023-03-24T08:16:18.701Z,101066.92
2023-03-24T08:18:48.902Z,101066.68
2023-03-24T08:21:25.914Z,101061.71
2023-03-24T08:23:54.369Z,101058.05
2023-03-24T08:26:26.670Z,101057.42
2023-03-24T08:28:54.929Z,101059.69
2023-03-24T08:31:23.423Z,101053.56
2023-03-24T08:33:53.942Z,101053.65
2023-03-24T08:36:26.633Z,101051.77
2023-03-24T08:38:55.781Z,101049.07
2023-03-24T08:41:44.662Z,101045.57
2023-03-24T08:44:13.166Z,101047.17
2023-03-24T08:46:42.010Z,101041.06
2023-03-24T08:49:10.864Z,101039.63
2023-03-24T08:51:39.142Z,101044.81
2023-03-24T08:54:07.955Z,101045.77
2023-03-24T08:56:36.127Z,101039.16
2023-03-24T08:59:06.027Z,101042.23
2023-03-24T09:01:35.661Z,101034.27
2023-03-24T09:04:04.223Z,101036.82
2023-03-24T09:06:32.921Z,101031.88
2023-03-24T09:09:00.998Z,101031.48
2023-03-24T09:11:29.185Z,101030.59
2023-03-24T09:13:57.987Z,101025.13
2023-03-24T09:16:26.896Z,101029.65
2023-03-24T09:18:55.361Z,101017.42
2023-03-24T09:21:23.946Z,101015.14
2023-03-24T09:23:52.430Z,101014.91
2023-03-24T09:26:21.644Z,101014.27
2023-03-24T09:28:49.911Z,101011.38
2023-03-24T09:31:18.443Z,101004.23
2023-03-24T09:33:47.394Z,100994.36
2023-03-24T09:36:15.690Z,100995.06
2023-03-24T09:38:44.190Z,100987.05
2023-03-24T09:41:20.536Z,100988.51
2023-03-24T09:43:55.323Z,100985.05
2023-03-24T09:46:29.512Z,100983.02
2023-03-24T09:48:58.102Z,100981.73
2023-03-24T09:51:30.362Z,100983.89
2023-03-24T09:54:04.764Z,100981.81
2023-03-24T09:56:33.886Z,100978.08
2023-03-24T09:59:08.007Z,100975.80
2023-03-24T10:01:36.576Z,100973.28
2023-03-24T10:04:05.593Z,100969.07
2023-03-24T10:06:42.198Z,100961.70
2023-03-24T10:09:10.602Z,100956.80
2023-03-24T10:11:47.320Z,100951.80
2023-03-24T10:14:25.092Z,100948.68
2023-03-24T10:17:03.360Z,100948.11
2023-03-24T10:19:43.973Z,100945.60
2023-03-24T10:22:21.461Z,100940.10
2023-03-24T10:24:56.197Z,100938.60
2023-03-24T10:27:24.476Z,100933.80
2023-03-24T10:29:55.008Z,100927.71
2023-03-24T10:32:25.967Z,100931.46
2023-03-24T10:35:07.740Z,100928.02
2023-03-24T10:37:36.949Z,100921.27
2023-03-24T10:40:12.800Z,100916.23
2023-03-24T10:42:40.977Z,100915.45
2023-03-24T10:45:14.325Z,100914.40
2023-03-24T10:47:42.999Z,100912.84
2023-03-24T10:50:14.975Z,100910.55
2023-03-24T10:52:46.665Z,100906.69
2023-03-24T10:55:26.472Z,100904.48
2023-03-24T10:58:00.099Z,100906.21
2023-03-24T11:00:35.948Z,100899.66
2023-03-24T11:03:08.554Z,100892.40
2023-03-24T11:05:38.085Z,100892.60
2023-03-24T11:08:26.120Z,100883.40
2023-03-24T11:10:59.508Z,100882.57
2023-03-24T11:13:32.507Z,100870.77
2023-03-24T11:16:14.949Z,100868.80
2023-03-24T11:18:57.612Z,100865.36
2023-03-24T11:21:28.155Z,100859.63
2023-03-24T11:24:01.681Z,100855.71
2023-03-24T11:26:41.037Z,100849.32
2023-03-24T11:29:18.896Z,100843.65
2023-03-24T11:31:52.078Z,100842.52
2023-03-24T11:34:25.496Z,100842.65
2023-03-24T11:36:56.274Z,100836.59
2023-03-24T11:39:25.843Z,100837.90
2023-03-24T11:42:03.135Z,100835.29
2023-03-24T11:44:40.300Z,100832.22
2023-03-24T11:47:11.654Z,100823.96
2023-03-24T11:49:50.651Z,100824.42
2023-03-24T11:52:29.084Z,100814.70
2023-03-24T11:54:57.377Z,100810.02
2023-03-24T11:57:40.493Z,100799.58
2023-03-24T12:00:22.304Z,100795.09
2023-03-24T12:02:56.480Z,100790.20
2023-03-24T12:05:42.661Z,100788.25
2023-03-24T12:08:13.941Z,100791.83
2023-03-24T12:10:42.018Z,100785.34
2023-03-24T12:13:18.979Z,100781.44
2023-03-24T12:16:08.690Z,100782.80
2023-03-24T12:18:39.619Z,100772.71
2023-03-24T12:21:27.240Z,100770.67
2023-03-24T12:23:59.901Z,100767.98
2023-03-24T12:26:28.320Z,100767.07
2023-03-24T12:29:08.659Z,100766.27
2023-03-24T12:31:36.782Z,100763.18
2023-03-24T12:34:17.091Z,100761.13
2023-03-24T12:37:04.714Z,100761.15
2023-03-24T12:39:35.829Z,100756.77
2023-03-24T12:42:04.040Z,100753.90
2023-03-24T12:44:32.328Z,100747.41
2023-03-24T12:47:16.362Z,100749.12
2023-03-24T12:49:44.650Z,100751.27
2023-03-24T12:52:29.204Z,100737.54
2023-03-24T12:55:03.124Z,100735.50
2023-03-24T12:57:35.947Z,100729.23
2023-03-24T13:00:12.226Z,100735.30
2023-03-24T13:02:45.621Z,100732.96
2023-03-24T13:05:46.803Z,100726.49
2023-03-24T13:08:19.782Z,100734.21
2023-03-24T13:10:48.783Z,100725.61
2023-03-24T13:13:29.059Z,100722.69
2023-03-24T13:16:09.325Z,100725.48
2023-03-24T13:18:40.034Z,100717.52
2023-03-24T13:21:12.096Z,100720.42
2023-03-24T13:23:44.078Z,100721.65
2023-03-24T13:26:31.482Z,100714.81
2023-03-24T13:29:18.386Z,100712.25
2023-03-24T13:31:51.007Z,100705.31
2023-03-24T13:34:33.077Z,100709.56
2023-03-24T13:37:06.820Z,100705.27
2023-03-24T13:39:36.488Z,100702.48
2023-03-24T13:42:05.361Z,100701.32
2023-03-24T13:44:38.982Z,100705.02
2023-03-24T13:47:15.575Z,100700.00
2023-03-24T13:49:53.997Z,100699.20
2023-03-24T13:52:45.224Z,100690.77
2023-03-24T13:55:16.409Z,100688.09
2023-03-24T13:57:52.582Z,100685.69
2023-03-24T14:00:23.337Z,100685.41
2023-03-24T14:02:55.641Z,100681.02
2023-03-24T14:05:26.830Z,100681.83
2023-03-24T14:08:01.981Z,100680.41
2023-03-24T14:10:41.695Z,100680.50
2023-03-24T14:13:12.883Z,100676.23
2023-03-24T14:15:57.264Z,100672.51
2023-03-24T14:18:26.074Z,100669.29
2023-03-24T14:20:57.703Z,100663.80
2023-03-24T14:23:41.814Z,100655.36
2023-03-24T14:26:31.787Z,100651.79
2023-03-24T14:29:00.535Z,100649.27
2023-03-24T14:31:30.843Z,100645.70
2023-03-24T14:34:21.499Z,100645.62
2023-03-24T14:37:00.119Z,100641.55
2023-03-24T14:39:36.794Z,100644.34
2023-03-24T14:42:24.321Z,100641.86
2023-03-24T14:44:56.274Z,100640.88
2023-03-24T14:47:32.913Z,100641.33
2023-03-24T14:50:04.070Z,100640.33
2023-03-24T14:52:40.182Z,100635.52
2023-03-24T14:55:13.247Z,100631.45
2023-03-24T14:57:46.184Z,100631.41
2023-03-24T15:00:17.603Z,100631.99
2023-03-24T15:02:48.179Z,100634.95
2023-03-24T15:05:25.714Z,100632.31
2023-03-24T15:08:03.537Z,100635.29
2023-03-24T15:10:33.741Z,100634.59
2023-03-24T15:13:01.996Z,100635.23
2023-03-24T15:15:30.785Z,100634.62
2023-03-24T15:17:59.131Z,100634.09
2023-03-24T15:20:27.586Z,100626.66
2023-03-24T15:22:56.194Z,100623.77
2023-03-24T15:25:28.283Z,100622.39
2023-03-24T15:27:57.956Z,100620.20
2023-03-24T15:30:26.457Z,100618.38
2023-03-24T15:32:55.129Z,100614.34
2023-03-24T15:35:23.974Z,100615.23
2023-03-24T15:37:53.662Z,100613.44
2023-03-24T15:40:31.234Z,100612.04
2023-03-24T15:43:00.890Z,100611.66
2023-03-24T15:45:34.176Z,100615.45
2023-03-24T15:48:05.929Z,100613.28
2023-03-24T15:50:41.264Z,100615.22
2023-03-24T15:53:16.081Z,100622.35
2023-03-24T15:55:44.871Z,100621.10
2023-03-24T15:58:24.624Z,100619.50
2023-03-24T16:00:54.922Z,100623.66
2023-03-24T16:03:26.902Z,100622.37
2023-03-24T16:05:56.197Z,100621.20
2023-03-24T16:08:41.367Z,100626.00
2023-03-24T16:11:12.233Z,100626.15
2023-03-24T16:13:42.451Z,100623.32
2023-03-24T16:16:11.074Z,100625.91
2023-03-24T16:18:40.565Z,100627.78
2023-03-24T16:21:13.951Z,100623.95
2023-03-24T16:23:45.402Z,100623.36
2023-03-24T16:26:14.715Z,100621.67
2023-03-24T16:28:43.300Z,100623.87
2023-03-24T16:31:18.152Z,100618.80
2023-03-24T16:33:47.147Z,100622.58
2023-03-24T16:36:15.618Z,100617.05
2023-03-24T16:38:45.231Z,100617.52
2023-03-24T16:41:15.664Z,100614.20
2023-03-24T16:43:44.650Z,100612.44
2023-03-24T16:46:17.575Z,100615.85
2023-03-24T16:48:46.541Z,100620.69
2023-03-24T16:51:15.759Z,100620.04
2023-03-24T16:53:45.463Z,100619.65
2023-03-24T16:56:15.071Z,100619.70
2023-03-24T16:58:43.658Z,100624.70
2023-03-24T17:01:29.879Z,100621.54
2023-03-24T17:03:59.250Z,100626.22
2023-03-24T17:06:28.875Z,100629.22
2023-03-24T17:08:57.368Z,100635.71
2023-03-24T17:11:30.505Z,100641.54
2023-03-24T17:14:04.841Z,100640.71
2023-03-24T17:16:36.793Z,100640.14
2023-03-24T17:19:08.497Z,100636.50
2023-03-24T17:21:38.930Z,100638.84
2023-03-24T17:24:11.032Z,100638.05
2023-03-24T17:26:40.405Z,100635.55
2023-03-24T17:29:12.796Z,100636.46
2023-03-24T17:31:43.528Z,100635.28
2023-03-24T17:34:21.530Z,100636.56
2023-03-24T17:36:51.116Z,100637.53
2023-03-24T17:39:20.464Z,100634.31
2023-03-24T17:41:49.156Z,100635.93
2023-03-24T17:44:17.606Z,100637.78
2023-03-24T17:46:46.147Z,100635.69
2023-03-24T17:49:17.753Z,100636.08
2023-03-24T17:51:46.039Z,100633.41
2023-03-24T17:54:19.337Z,100632.94
2023-03-24T17:56:47.889Z,100637.77
2023-03-24T17:59:16.406Z,100632.11
2023-03-24T18:01:44.598Z,100631.60
2023-03-24T18:04:13.107Z,100636.70
2023-03-24T18:06:42.575Z,100633.08
2023-03-24T18:09:10.763Z,100631.27
2023-03-24T18:11:39.244Z,100632.30
2023-03-24T18:14:09.415Z,100632.41
2023-03-24T18:16:39.533Z,100633.20
2023-03-24T18:19:08.386Z,100633.66
2023-03-24T18:21:36.838Z,100633.04
2023-03-24T18:24:06.680Z,100630.48
2023-03-24T18:26:35.198Z,100634.17
2023-03-24T18:29:03.872Z,100630.65
2023-03-24T18:31:33.021Z,100631.73
2023-03-24T18:34:01.288Z,100633.43
2023-03-24T18:36:31.387Z,100631.20
2023-03-24T18:38:59.778Z,100627.63
2023-03-24T18:41:28.752Z,100629.29
2023-03-24T18:43:58.483Z,100626.74
2023-03-24T18:46:27.465Z,100624.91
2023-03-24T18:48:55.953Z,100624.20
2023-03-24T18:51:28.361Z,100628.30
2023-03-24T18:53:56.509Z,100624.98
2023-03-24T18:56:24.993Z,100622.08
2023-03-24T18:58:53.352Z,100620.77
2023-03-24T19:01:26.369Z,100618.23
2023-03-24T19:03:54.960Z,100617.59
2023-03-24T19:06:26.439Z,100614.57
2023-03-24T19:08:54.603Z,100614.16
2023-03-24T19:11:23.499Z,100611.77
2023-03-24T19:13:52.209Z,100611.84
2023-03-24T19:16:20.836Z,100608.23
2023-03-24T19:18:50.919Z,100608.77
2023-03-24T19:21:19.899Z,100611.33
2023-03-24T19:23:49.951Z,100609.98
2023-03-24T19:26:20.846Z,100606.90
2023-03-24T19:28:48.939Z,100608.61
2023-03-24T19:31:18.706Z,100607.10
2023-03-24T19:33:47.448Z,100603.78
2023-03-24T19:36:18.391Z,100605.11
2023-03-24T19:38:46.883Z,100603.74
2023-03-24T19:41:16.151Z,100604.40
2023-03-24T19:43:44.563Z,100602.39
2023-03-24T19:46:12.875Z,100605.20
2023-03-24T19:48:43.889Z,100600.41
2023-03-24T19:51:12.294Z,100600.31
2023-03-24T19:53:40.617Z,100601.52
2023-03-24T19:56:08.938Z,100605.64
2023-03-24T19:58:37.130Z,100599.96
2023-03-24T20:01:05.464Z,100594.81
2023-03-24T20:03:35.773Z,100594.08
2023-03-24T20:06:10.559Z,100592.58
2023-03-24T20:08:39.104Z,100591.45
2023-03-24T20:11:08.549Z,100589.33
2023-03-24T20:13:37.142Z,100591.80
2023-03-24T20:16:05.844Z,100587.80
2023-03-24T20:18:34.855Z,100589.31
2023-03-24T20:21:06.556Z,100593.69
2023-03-24T20:23:34.977Z,100591.95
2023-03-24T20:26:03.377Z,100595.16
2023-03-24T20:28:31.643Z,100588.75
2023-03-24T20:31:01.213Z,100592.09
2023-03-24T20:33:29.949Z,100588.99
2023-03-24T20:35:58.671Z,100587.56
2023-03-24T20:38:26.932Z,100586.83
2023-03-24T20:40:59.254Z,100582.45
2023-03-24T20:43:27.993Z,100581.01
2023-03-24T20:45:57.607Z,100578.70
2023-03-24T20:48:26.846Z,100578.13
2023-03-24T20:50:55.296Z,100571.40
2023-03-24T20:53:25.107Z,100570.32
2023-03-24T20:56:01.060Z,100567.77
2023-03-24T20:58:31.083Z,100560.13
2023-03-24T21:00:59.909Z,100557.98
2023-03-24T21:03:28.212Z,100556.89
2023-03-24T21:05:56.437Z,100554.11
2023-03-24T21:08:24.623Z,100552.13
2023-03-24T21:10:56.595Z,100549.67
2023-03-24T21:13:34.790Z,100548.31
2023-03-24T21:16:09.259Z,100549.48
2023-03-24T21:18:38.618Z,100550.50
2023-03-24T21:21:07.019Z,100545.50
2023-03-24T21:23:39.375Z,100545.00
2023-03-24T21:26:09.814Z,100542.69
2023-03-24T21:28:38.814Z,100544.12
2023-03-24T21:31:08.283Z,100546.36
2023-03-24T21:33:40.172Z,100546.95
2023-03-24T21:36:09.147Z,100543.56
2023-03-24T21:38:37.874Z,100541.20
2023-03-24T21:41:06.666Z,100540.39
2023-03-24T21:43:35.465Z,100541.52
2023-03-24T21:46:04.262Z,100539.37
2023-03-24T21:48:40.280Z,100539.10
2023-03-24T21:51:08.802Z,100538.84
2023-03-24T21:53:37.497Z,100535.17
2023-03-24T21:56:06.356Z,100530.89
2023-03-24T21:58:35.078Z,100525.14
2023-03-24T22:01:03.539Z,100524.98
2023-03-24T22:03:34.708Z,100523.72
2023-03-24T22:06:04.034Z,100524.94
2023-03-24T22:08:32.711Z,100523.88
2023-03-24T22:11:04.273Z,100517.59
2023-03-24T22:13:33.168Z,100522.09
2023-03-24T22:16:03.255Z,100521.14
2023-03-24T22:18:32.485Z,100528.30
2023-03-24T22:21:04.791Z,100525.26
2023-03-24T22:23:34.583Z,100520.02
2023-03-24T22:26:13.507Z,100522.61
2023-03-24T22:28:42.557Z,100516.19
2023-03-24T22:31:12.440Z,100522.28
2023-03-24T22:33:41.219Z,100517.41
2023-03-24T22:36:09.813Z,100518.48
2023-03-24T22:38:37.984Z,100522.92
2023-03-24T22:41:07.486Z,100517.74
2023-03-24T22:43:36.529Z,100518.52
2023-03-24T22:46:06.059Z,100510.08
2023-03-24T22:48:34.384Z,100503.21
2023-03-24T22:51:02.559Z,100506.36
2023-03-24T22:53:30.736Z,100509.44
2023-03-24T22:55:58.821Z,100499.48
2023-03-24T22:58:27.300Z,100496.88
2023-03-24T23:00:56.741Z,100495.77
2023-03-24T23:03:25.185Z,100498.47
2023-03-24T23:05:53.495Z,100495.16
2023-03-24T23:08:21.764Z,100489.75
2023-03-24T23:10:50.045Z,100488.50
2023-03-24T23:13:18.526Z,100488.91
2023-03-24T23:15:48.002Z,100483.55
2023-03-24T23:18:16.937Z,100485.30
2023-03-24T23:20:46.206Z,100476.89
2023-03-24T23:23:14.416Z,100473.77
2023-03-24T23:25:44.081Z,100470.86
2023-03-24T23:28:13.047Z,100471.88
2023-03-24T23:30:41.523Z,100472.51
2023-03-24T23:33:14.909Z,100467.92
2023-03-24T23:35:43.227Z,100470.73
2023-03-24T23:38:11.621Z,100472.65
2023-03-24T23:40:40.023Z,100466.98
2023-03-24T23:43:08.554Z,100467.59
2023-03-24T23:45:37.187Z,100465.93
2023-03-24T23:48:06.690Z,100464.46
2023-03-24T23:50:34.838Z,100463.70
2023-03-24T23:53:03.014Z,100459.18
2023-03-24T23:55:32.120Z,100462.90
2023-03-24T23:58:01.220Z,100458.22
